Time;durP1;ratioP1;P1;durP2;ratioP2;P2;SDS_P1;SDS_P2;PMS_P1;PMS_P2;Temp;Humidity;BMP_temperature;BMP_pressure;BME280_temperature;BME280_humidity;BME280_pressure;Samples;Min_cycle;Max_cycle;Signal;HPM_P1;HPM_P2
2023/07/04 00:01:05;;;;;;;5.53;1.65;;;;;;;;;;6208978;23;20008;-82
2023/07/04 00:03:31;;;;;;;3.10;1.52;;;;;;;;;;6209764;23;20341;-82
2023/07/04 00:05:57;;;;;;;3.80;1.50;;;;;;;;;;6208999;23;20012;-82
2023/07/04 00:08:25;;;;;;;4.75;1.52;;;;;;;;;;6208475;23;20096;-82
2023/07/04 00:10:51;;;;;;;8.23;1.65;;;;;;;;;;6206784;23;20392;-84
2023/07/04 00:13:20;;;;;;;4.22;1.55;;;;;;;;;;6208280;23;20020;-82
2023/07/04 00:15:51;;;;;;;3.45;1.90;;;;;;;;;;6208867;23;20019;-82
2023/07/04 00:18:20;;;;;;;4.03;1.60;;;;;;;;;;6207604;23;20016;-82
2023/07/04 00:20:54;;;;;;;4.78;1.50;;;;;;;;;;6206862;23;20019;-82
2023/07/04 00:23:24;;;;;;;4.22;1.50;;;;;;;;;;6208047;23;20047;-83
2023/07/04 00:25:52;;;;;;;4.18;1.60;;;;;;;;;;6208412;23;20044;-83
2023/07/04 00:28:18;;;;;;;4.43;1.77;;;;;;;;;;6206035;23;20012;-82
2023/07/04 00:30:44;;;;;;;4.35;1.67;;;;;;;;;;6206923;23;20009;-82
2023/07/04 00:33:13;;;;;;;6.95;2.28;;;;;;;;;;6208658;23;20052;-82
2023/07/04 00:35:39;;;;;;;5.95;2.03;;;;;;;;;;6208049;23;20024;-82
2023/07/04 00:38:05;;;;;;;5.82;2.00;;;;;;;;;;6207551;23;20370;-82
2023/07/04 00:40:31;;;;;;;4.63;2.00;;;;;;;;;;6208748;23;20365;-82
2023/07/04 00:43:03;;;;;;;3.67;1.70;;;;;;;;;;6208170;23;20387;-82
2023/07/04 00:45:35;;;;;;;4.00;1.65;;;;;;;;;;6207493;23;20036;-82
2023/07/04 00:48:03;;;;;;;7.40;2.05;;;;;;;;;;6206371;23;20013;-82
2023/07/04 00:50:41;;;;;;;6.18;1.83;;;;;;;;;;6206431;23;20019;-83
2023/07/04 00:53:10;;;;;;;6.03;1.85;;;;;;;;;;6206059;23;20016;-82
2023/07/04 00:55:38;;;;;;;4.43;2.13;;;;;;;;;;6207020;23;20334;-82
2023/07/04 00:58:04;;;;;;;6.93;2.28;;;;;;;;;;6205389;23;20063;-83
2023/07/04 01:00:31;;;;;;;5.13;2.38;;;;;;;;;;6205650;23;20019;-82
2023/07/04 01:03:14;;;;;;;8.38;1.80;;;;;;;;;;6205492;23;20020;-83
2023/07/04 01:06:00;;;;;;;4.80;2.30;;;;;;;;;;6205451;23;20013;-82
2023/07/04 01:08:40;;;;;;;7.80;2.08;;;;;;;;;;6205950;23;20011;-82
2023/07/04 01:11:08;;;;;;;5.80;2.00;;;;;;;;;;6206928;23;20055;-83
2023/07/04 01:13:36;;;;;;;5.20;2.20;;;;;;;;;;6205443;23;20323;-83
2023/07/04 01:16:03;;;;;;;5.80;2.40;;;;;;;;;;6205502;23;20438;-83
2023/07/04 01:18:30;;;;;;;5.10;2.05;;;;;;;;;;6206745;23;20035;-83
2023/07/04 01:20:57;;;;;;;4.32;2.10;;;;;;;;;;6205585;23;20384;-82
2023/07/04 01:23:23;;;;;;;4.78;1.83;;;;;;;;;;6205895;23;20099;-82
2023/07/04 01:26:08;;;;;;;4.20;1.98;;;;;;;;;;6206000;23;20110;-83
2023/07/04 01:28:34;;;;;;;3.35;1.55;;;;;;;;;;6207929;23;20012;-82
2023/07/04 01:31:00;;;;;;;5.53;1.50;;;;;;;;;;6207373;23;20040;-82
2023/07/04 01:33:26;;;;;;;6.05;1.85;;;;;;;;;;6206592;23;20020;-82
2023/07/04 01:35:53;;;;;;;4.32;1.52;;;;;;;;;;6207355;23;20028;-83
2023/07/04 01:38:20;;;;;;;3.95;1.92;;;;;;;;;;6208357;23;20055;-82
2023/07/04 01:40:46;;;;;;;5.70;2.10;;;;;;;;;;6207660;23;20016;-83
2023/07/04 01:43:12;;;;;;;5.63;1.50;;;;;;;;;;6207913;23;20377;-83
2023/07/04 01:45:38;;;;;;;3.20;2.08;;;;;;;;;;6208173;23;20070;-82
2023/07/04 01:48:06;;;;;;;3.95;2.00;;;;;;;;;;6206348;23;20009;-83
2023/07/04 01:50:32;;;;;;;5.63;1.73;;;;;;;;;;6205436;23;20015;-83
2023/07/04 01:52:58;;;;;;;2.97;1.60;;;;;;;;;;6205723;23;20466;-82
2023/07/04 01:55:24;;;;;;;7.28;2.70;;;;;;;;;;6205906;23;20022;-82
2023/07/04 01:57:50;;;;;;;2.25;1.30;;;;;;;;;;6206346;23;20027;-82
2023/07/04 02:00:17;;;;;;;5.55;2.42;;;;;;;;;;6205121;23;20016;-82
2023/07/04 02:02:43;;;;;;;3.92;2.00;;;;;;;;;;6205786;23;20013;-82
2023/07/04 02:05:09;;;;;;;7.15;3.53;;;;;;;;;;6207368;23;20012;-82
2023/07/04 02:07:35;;;;;;;7.03;1.90;;;;;;;;;;6206549;23;20439;-82
2023/07/04 02:10:01;;;;;;;3.50;1.70;;;;;;;;;;6205516;23;20040;-82
2023/07/04 02:12:27;;;;;;;5.97;2.15;;;;;;;;;;6205930;23;20020;-82
2023/07/04 02:14:53;;;;;;;4.68;1.80;;;;;;;;;;6207948;23;20099;-83
2023/07/04 02:17:19;;;;;;;6.07;2.03;;;;;;;;;;6206801;23;20017;-83
2023/07/04 02:19:45;;;;;;;6.05;2.15;;;;;;;;;;6205803;23;20044;-83
2023/07/04 02:22:12;;;;;;;4.25;2.00;;;;;;;;;;6204827;23;20386;-83
2023/07/04 02:24:38;;;;;;;3.10;1.90;;;;;;;;;;6206440;23;20040;-83
2023/07/04 02:27:04;;;;;;;6.20;2.00;;;;;;;;;;6205195;23;20020;-83
2023/07/04 02:29:30;;;;;;;5.38;2.28;;;;;;;;;;6208411;23;20013;-83
2023/07/04 02:31:56;;;;;;;5.43;1.80;;;;;;;;;;6207252;23;20013;-82
2023/07/04 02:34:22;;;;;;;3.33;1.90;;;;;;;;;;6204849;23;20071;-82
2023/07/04 02:36:48;;;;;;;5.32;1.77;;;;;;;;;;6207749;23;20023;-83
2023/07/04 02:39:14;;;;;;;5.22;2.00;;;;;;;;;;6204937;23;20429;-83
2023/07/04 02:41:40;;;;;;;3.70;1.65;;;;;;;;;;6208880;23;20017;-83
2023/07/04 02:44:06;;;;;;;4.75;1.65;;;;;;;;;;6206661;23;20035;-83
2023/07/04 02:46:32;;;;;;;5.55;2.33;;;;;;;;;;6207214;23;20559;-83
2023/07/04 02:48:58;;;;;;;3.25;1.77;;;;;;;;;;6209121;23;20013;-83
2023/07/04 02:51:24;;;;;;;3.22;1.75;;;;;;;;;;6207659;23;20013;-83
2023/07/04 02:53:50;;;;;;;2.72;1.63;;;;;;;;;;6209469;23;20021;-83
2023/07/04 02:56:16;;;;;;;8.85;2.85;;;;;;;;;;6206333;23;20067;-82
2023/07/04 02:58:42;;;;;;;3.38;2.30;;;;;;;;;;6209007;23;20044;-83
2023/07/04 03:01:09;;;;;;;4.97;2.75;;;;;;;;;;6206441;23;20023;-83
2023/07/04 03:03:35;;;;;;;2.78;1.95;;;;;;;;;;6208070;23;20013;-83
2023/07/04 03:06:01;;;;;;;3.22;1.70;;;;;;;;;;6206486;23;20016;-82
2023/07/04 03:08:27;;;;;;;4.47;2.08;;;;;;;;;;6209012;23;20024;-83
2023/07/04 03:10:53;;;;;;;2.90;1.75;;;;;;;;;;6182780;23;20008;-81
2023/07/04 03:13:19;;;;;;;5.35;2.00;;;;;;;;;;6209316;23;20021;-82
2023/07/04 03:15:45;;;;;;;5.32;2.08;;;;;;;;;;6209128;23;20013;-81
2023/07/04 03:18:11;;;;;;;5.40;1.50;;;;;;;;;;6206238;23;20016;-81
2023/07/04 03:20:37;;;;;;;4.93;1.65;;;;;;;;;;6209751;23;20008;-81
2023/07/04 03:23:03;;;;;;;5.70;1.90;;;;;;;;;;6207296;23;20012;-81
2023/07/04 03:25:29;;;;;;;6.38;2.20;;;;;;;;;;6208845;23;20386;-82
2023/07/04 03:27:55;;;;;;;4.50;1.60;;;;;;;;;;6205299;23;20016;-81
2023/07/04 03:30:22;;;;;;;4.20;2.17;;;;;;;;;;6208171;23;20012;-81
2023/07/04 03:32:48;;;;;;;7.68;2.30;;;;;;;;;;6206324;23;20012;-81
2023/07/04 03:35:14;;;;;;;4.55;2.15;;;;;;;;;;6207832;23;20020;-81
2023/07/04 03:37:40;;;;;;;2.58;1.60;;;;;;;;;;6206459;23;20056;-81
2023/07/04 03:40:08;;;;;;;4.13;1.83;;;;;;;;;;6206184;23;20044;-82
2023/07/04 03:42:35;;;;;;;5.32;1.77;;;;;;;;;;6209630;23;20048;-81
2023/07/04 03:45:01;;;;;;;6.03;2.05;;;;;;;;;;6207975;23;20019;-81
2023/07/04 03:47:27;;;;;;;5.00;1.95;;;;;;;;;;6209497;23;20012;-81
2023/07/04 03:49:53;;;;;;;2.92;1.90;;;;;;;;;;6206291;23;20702;-81
2023/07/04 03:52:19;;;;;;;5.70;2.10;;;;;;;;;;6181350;23;20473;-82
2023/07/04 03:54:45;;;;;;;4.63;2.05;;;;;;;;;;6206917;23;20031;-82
2023/07/04 03:57:12;;;;;;;5.03;2.05;;;;;;;;;;6206862;23;20343;-81
2023/07/04 03:59:38;;;;;;;3.65;1.90;;;;;;;;;;6208122;23;20020;-81
2023/07/04 04:02:04;;;;;;;7.30;2.65;;;;;;;;;;6206552;23;20020;-81
2023/07/04 04:04:38;;;;;;;7.60;1.52;;;;;;;;;;6207581;23;20020;-81
2023/07/04 04:07:07;;;;;;;5.88;2.53;;;;;;;;;;6205678;23;20008;-81
2023/07/04 04:09:33;;;;;;;4.85;2.33;;;;;;;;;;6206073;23;20066;-81
2023/07/04 04:12:17;;;;;;;3.78;2.17;;;;;;;;;;6206436;23;20016;-81
2023/07/04 04:14:44;;;;;;;4.35;2.13;;;;;;;;;;6205396;23;20013;-81
2023/07/04 04:17:10;;;;;;;4.18;2.20;;;;;;;;;;6206311;23;20013;-82
2023/07/04 04:19:36;;;;;;;4.07;2.17;;;;;;;;;;6209374;23;20024;-82
2023/07/04 04:22:02;;;;;;;5.30;2.05;;;;;;;;;;6206128;23;20012;-82
2023/07/04 04:24:28;;;;;;;5.10;2.00;;;;;;;;;;6181360;23;20071;-81
2023/07/04 04:26:54;;;;;;;4.38;2.10;;;;;;;;;;6206236;23;20044;-82
2023/07/04 04:29:22;;;;;;;6.65;1.95;;;;;;;;;;6205611;23;20638;-81
2023/07/04 04:31:48;;;;;;;3.92;2.10;;;;;;;;;;6206485;23;20056;-82
2023/07/04 04:34:16;;;;;;;4.07;1.85;;;;;;;;;;6205594;23;20016;-81
2023/07/04 04:36:43;;;;;;;5.38;2.17;;;;;;;;;;6206644;23;20103;-86
2023/07/04 04:39:09;;;;;;;3.55;2.22;;;;;;;;;;6201841;23;20017;-89
2023/07/04 04:41:36;;;;;;;5.78;2.17;;;;;;;;;;6207633;23;20401;-89
2023/07/04 04:44:04;;;;;;;4.75;2.10;;;;;;;;;;6203694;23;20369;-89
2023/07/04 04:46:30;;;;;;;4.90;2.10;;;;;;;;;;6207997;23;20087;-86
2023/07/04 04:48:58;;;;;;;3.22;2.90;;;;;;;;;;6209380;23;20482;-88
2023/07/04 04:51:24;;;;;;;3.22;1.52;;;;;;;;;;6208983;23;20071;-87
2023/07/04 04:53:50;;;;;;;3.83;1.70;;;;;;;;;;6208563;23;20044;-84
2023/07/04 04:56:16;;;;;;;2.90;1.88;;;;;;;;;;6213917;23;20013;-83
2023/07/04 04:58:45;;;;;;;3.83;1.65;;;;;;;;;;6213377;23;20049;-85
2023/07/04 05:01:11;;;;;;;5.55;2.20;;;;;;;;;;6214805;23;20091;-84
2023/07/04 05:03:37;;;;;;;2.70;1.65;;;;;;;;;;6208981;23;20044;-85
2023/07/04 05:06:05;;;;;;;3.67;1.75;;;;;;;;;;6206302;23;20075;-85
2023/07/04 05:08:31;;;;;;;2.33;1.63;;;;;;;;;;6206045;23;20019;-85
2023/07/04 05:11:02;;;;;;;4.65;1.75;;;;;;;;;;6206942;23;20012;-85
2023/07/04 05:13:28;;;;;;;4.00;1.70;;;;;;;;;;6206082;23;20020;-87
2023/07/04 05:16:07;;;;;;;4.32;1.58;;;;;;;;;;6204729;23;20068;-88
2023/07/04 05:18:35;;;;;;;4.22;1.75;;;;;;;;;;6207746;23;20307;-88
2023/07/04 05:21:06;;;;;;;4.10;1.90;;;;;;;;;;6179653;23;20035;-87
2023/07/04 05:23:34;;;;;;;4.85;1.83;;;;;;;;;;6205570;23;20442;-87
2023/07/04 05:26:10;;;;;;;3.35;1.52;;;;;;;;;;6204228;23;20020;-88
2023/07/04 05:28:36;;;;;;;3.45;1.60;;;;;;;;;;6208035;23;20252;-88
2023/07/04 05:31:13;;;;;;;1.88;1.27;;;;;;;;;;6205336;23;20120;-88
2023/07/04 05:33:39;;;;;;;1.33;1.23;;;;;;;;;;6206171;23;20035;-87
2023/07/04 05:36:06;;;;;;;3.55;1.23;;;;;;;;;;6203978;23;20091;-88
2023/07/04 05:38:34;;;;;;;2.80;1.20;;;;;;;;;;6205619;23;20029;-89
2023/07/04 05:41:00;;;;;;;2.47;1.25;;;;;;;;;;6206392;23;20020;-86
2023/07/04 05:43:27;;;;;;;2.95;1.30;;;;;;;;;;6207001;23;20431;-87
2023/07/04 05:45:54;;;;;;;2.45;1.17;;;;;;;;;;6205507;23;20013;-86
2023/07/04 05:48:20;;;;;;;3.35;1.40;;;;;;;;;;6208130;23;20052;-88
2023/07/04 05:50:49;;;;;;;3.47;1.10;;;;;;;;;;6207335;23;20013;-88
2023/07/04 05:53:15;;;;;;;3.25;1.40;;;;;;;;;;6206661;23;20012;-89
2023/07/04 05:55:42;;;;;;;2.28;1.10;;;;;;;;;;6203540;23;20334;-92
2023/07/04 05:58:08;;;;;;;2.60;1.10;;;;;;;;;;6206046;23;20024;-92
2023/07/04 06:00:35;;;;;;;2.10;1.42;;;;;;;;;;6205865;23;20016;-91
2023/07/04 06:03:03;;;;;;;1.73;0.80;;;;;;;;;;6179286;23;20075;-89
2023/07/04 06:05:30;;;;;;;1.75;1.00;;;;;;;;;;6207983;23;20031;-92
2023/07/04 06:07:56;;;;;;;3.13;1.17;;;;;;;;;;6203996;23;20048;-87
2023/07/04 06:10:23;;;;;;;3.35;1.30;;;;;;;;;;6218339;23;20017;-96
2023/07/04 06:12:50;;;;;;;2.70;1.38;;;;;;;;;;6205639;23;20027;-95
2023/07/04 06:15:16;;;;;;;3.58;1.48;;;;;;;;;;6198341;23;20017;-93
2023/07/04 06:17:42;;;;;;;4.38;1.30;;;;;;;;;;6220076;23;20048;-96
2023/07/04 06:20:09;;;;;;;3.35;1.27;;;;;;;;;;6221205;23;20020;-92
2023/07/04 06:22:35;;;;;;;3.20;1.17;;;;;;;;;;6217103;23;20074;-92
2023/07/04 06:25:01;;;;;;;2.95;1.30;;;;;;;;;;6189786;23;20008;-90
2023/07/04 06:27:28;;;;;;;2.15;0.88;;;;;;;;;;6214940;23;20013;-96
2023/07/04 06:29:55;;;;;;;5.05;1.05;;;;;;;;;;6186633;23;20027;-94
2023/07/04 06:32:24;;;;;;;1.98;1.00;;;;;;;;;;6183693;23;20020;-93
2023/07/04 06:34:50;;;;;;;3.20;1.10;;;;;;;;;;6208106;23;20017;-92
2023/07/04 06:37:16;;;;;;;2.38;0.75;;;;;;;;;;6209404;23;20080;-93
2023/07/04 06:39:42;;;;;;;2.63;1.00;;;;;;;;;;6206998;23;20078;-88
2023/07/04 06:42:09;;;;;;;1.90;0.90;;;;;;;;;;6206955;23;20040;-89
2023/07/04 06:44:35;;;;;;;3.35;0.90;;;;;;;;;;6208715;23;20013;-92
2023/07/04 06:47:01;;;;;;;5.22;1.35;;;;;;;;;;6209760;23;20335;-89
2023/07/04 06:49:27;;;;;;;2.20;0.90;;;;;;;;;;6208427;23;20130;-90
2023/07/04 06:51:53;;;;;;;3.55;0.98;;;;;;;;;;6204292;23;20072;-92
2023/07/04 06:54:19;;;;;;;1.52;0.60;;;;;;;;;;6180015;23;20016;-89
2023/07/04 06:56:46;;;;;;;1.85;0.70;;;;;;;;;;6206765;23;20019;-91
2023/07/04 06:59:13;;;;;;;4.05;0.90;;;;;;;;;;6206175;23;20096;-91
2023/07/04 07:01:39;;;;;;;2.20;0.75;;;;;;;;;;6209200;23;20017;-93
2023/07/04 07:04:06;;;;;;;2.90;0.80;;;;;;;;;;6212709;23;20021;-90
2023/07/04 07:06:32;;;;;;;1.90;0.90;;;;;;;;;;6212903;23;20020;-92
2023/07/04 07:08:58;;;;;;;2.65;1.00;;;;;;;;;;6188665;23;20023;-89
2023/07/04 07:11:25;;;;;;;4.07;0.98;;;;;;;;;;6215733;23;20102;-92
2023/07/04 07:13:51;;;;;;;4.25;0.90;;;;;;;;;;6229888;23;20047;-95
2023/07/04 07:16:18;;;;;;;3.28;0.90;;;;;;;;;;6201362;23;20020;-92
2023/07/04 07:18:45;;;;;;;2.92;1.10;;;;;;;;;;6196299;23;20091;-90
2023/07/04 07:21:12;;;;;;;2.45;0.77;;;;;;;;;;6188134;23;20016;-91
2023/07/04 07:23:39;;;;;;;3.45;0.82;;;;;;;;;;6207606;23;20016;-90
2023/07/04 07:26:07;;;;;;;3.47;1.05;;;;;;;;;;6209795;23;20017;-90
2023/07/04 07:28:34;;;;;;;3.03;0.90;;;;;;;;;;6206358;23;20040;-90
2023/07/04 07:31:10;;;;;;;4.00;0.82;;;;;;;;;;6206306;23;20017;-86
2023/07/04 07:33:36;;;;;;;;;;;;;;;;;;6207656;23;20111;-89
2023/07/04 07:36:17;;;;;;;2.40;0.70;;;;;;;;;;6183005;23;19940;-92
2023/07/04 07:38:44;;;;;;;1.98;0.85;;;;;;;;;;6207702;23;20378;-88
2023/07/04 07:41:10;;;;;;;1.80;0.85;;;;;;;;;;6183446;23;20017;-89
2023/07/04 07:43:38;;;;;;;1.95;1.27;;;;;;;;;;6209061;23;20066;-90
2023/07/04 07:46:06;;;;;;;2.38;0.88;;;;;;;;;;6206513;23;20012;-88
2023/07/04 07:48:32;;;;;;;1.58;0.80;;;;;;;;;;6208527;23;20434;-90
2023/07/04 07:50:58;;;;;;;2.67;1.30;;;;;;;;;;6209063;23;20071;-88
2023/07/04 07:53:24;;;;;;;4.80;1.38;;;;;;;;;;6213276;23;20353;-90
2023/07/04 07:55:50;;;;;;;2.40;0.65;;;;;;;;;;6211598;23;20060;-93
2023/07/04 07:58:16;;;;;;;3.10;1.10;;;;;;;;;;6181504;23;20385;-93
2023/07/04 08:00:43;;;;;;;2.42;0.70;;;;;;;;;;6206626;23;20044;-89
2023/07/04 08:03:09;;;;;;;3.40;1.10;;;;;;;;;;6182154;23;20020;-94
2023/07/04 08:05:39;;;;;;;4.82;1.00;;;;;;;;;;6209556;23;20434;-89
2023/07/04 08:08:05;;;;;;;3.72;0.80;;;;;;;;;;6208284;23;20031;-87
2023/07/04 08:10:35;;;;;;;4.15;0.95;;;;;;;;;;6208668;23;20040;-90
2023/07/04 08:13:01;;;;;;;;;;;;;;;;;;6207049;23;20016;-92
2023/07/04 08:15:27;;;;;;;3.97;1.05;;;;;;;;;;6208356;23;20392;-94
2023/07/04 08:17:53;;;;;;;1.30;0.82;;;;;;;;;;6209355;23;20023;-90
2023/07/04 08:20:21;;;;;;;4.18;1.98;;;;;;;;;;6205419;23;20016;-91
2023/07/04 08:22:47;;;;;;;6.47;1.65;;;;;;;;;;6206326;23;20350;-91
2023/07/04 08:25:14;;;;;;;4.38;0.98;;;;;;;;;;6184841;23;20013;-92
2023/07/04 08:27:40;;;;;;;4.80;1.40;;;;;;;;;;6185005;23;20012;-91
2023/07/04 08:30:06;;;;;;;3.20;1.10;;;;;;;;;;6206203;23;20044;-87
2023/07/04 08:32:33;;;;;;;4.13;1.20;;;;;;;;;;6209184;23;20464;-88
2023/07/04 08:35:00;;;;;;;3.40;1.10;;;;;;;;;;6206083;23;20052;-86
2023/07/04 08:37:26;;;;;;;2.92;1.20;;;;;;;;;;6210480;23;20017;-90
2023/07/04 08:39:52;;;;;;;3.08;1.08;;;;;;;;;;6205771;23;20012;-90
2023/07/04 08:42:19;;;;;;;2.13;1.10;;;;;;;;;;6207535;23;20335;-89
2023/07/04 08:44:46;;;;;;;2.90;0.82;;;;;;;;;;6212031;23;20300;-91
2023/07/04 08:47:14;;;;;;;3.30;1.30;;;;;;;;;;6209088;23;20318;-94
2023/07/04 08:49:43;;;;;;;6.53;1.52;;;;;;;;;;6208973;23;20023;-94
2023/07/04 08:52:28;;;;;;;3.00;1.00;;;;;;;;;;6208273;23;20106;-93
2023/07/04 08:54:54;;;;;;;3.55;1.33;;;;;;;;;;6186260;23;20067;-94
2023/07/04 08:57:27;;;;;;;3.17;1.10;;;;;;;;;;6212061;23;20480;-94
2023/07/04 08:59:56;;;;;;;2.22;1.10;;;;;;;;;;6213786;23;20024;-92
2023/07/04 09:02:25;;;;;;;3.22;1.42;;;;;;;;;;6186809;23;20433;-94
2023/07/04 09:05:04;;;;;;;6.15;1.48;;;;;;;;;;6212409;23;20020;-93
2023/07/04 09:07:38;;;;;;;5.70;1.20;;;;;;;;;;6212961;23;20066;-92
2023/07/04 09:10:13;;;;;;;5.63;1.73;;;;;;;;;;6212970;23;20028;-96
2023/07/04 09:12:40;;;;;;;2.97;1.15;;;;;;;;;;6185133;23;20349;-92
2023/07/04 09:15:12;;;;;;;3.67;1.20;;;;;;;;;;6213500;23;20387;-92
2023/07/04 09:17:39;;;;;;;5.38;1.08;;;;;;;;;;6205955;23;20106;-90
2023/07/04 09:20:08;;;;;;;7.05;2.13;;;;;;;;;;6207427;23;20012;-94
2023/07/04 09:22:35;;;;;;;4.05;1.30;;;;;;;;;;6182230;23;20012;-87
2023/07/04 09:25:02;;;;;;;7.07;1.58;;;;;;;;;;6205270;23;20020;-91
2023/07/04 09:27:29;;;;;;;4.00;1.17;;;;;;;;;;6207195;23;20508;-92
2023/07/04 09:29:56;;;;;;;2.95;1.30;;;;;;;;;;6181390;23;20330;-89
2023/07/04 09:32:22;;;;;;;6.05;1.60;;;;;;;;;;6180913;23;20472;-91
2023/07/04 09:34:49;;;;;;;5.10;1.85;;;;;;;;;;6186639;23;20087;-92
2023/07/04 09:37:18;;;;;;;4.43;1.27;;;;;;;;;;6212869;23;20060;-93
2023/07/04 09:39:45;;;;;;;4.30;1.65;;;;;;;;;;6211736;23;20102;-91
2023/07/04 09:42:12;;;;;;;3.67;1.20;;;;;;;;;;6186154;23;19993;-93
2023/07/04 09:44:38;;;;;;;3.30;1.50;;;;;;;;;;6208881;23;20389;-94
2023/07/04 09:47:05;;;;;;;2.97;1.00;;;;;;;;;;6183350;23;20013;-95
2023/07/04 09:49:33;;;;;;;2.60;1.20;;;;;;;;;;6209227;23;20020;-93
2023/07/04 09:52:01;;;;;;;3.00;1.00;;;;;;;;;;6184982;23;20353;-89
2023/07/04 09:54:27;;;;;;;5.78;1.25;;;;;;;;;;6207729;23;20023;-92
2023/07/04 09:56:54;;;;;;;4.35;1.08;;;;;;;;;;6210213;23;20017;-93
2023/07/04 09:59:24;;;;;;;4.32;1.67;;;;;;;;;;6212423;23;20027;-93
2023/07/04 10:01:50;;;;;;;;;;;;;;;;;;6210086;23;20041;-91
2023/07/04 10:04:24;;;;;;;4.15;1.38;;;;;;;;;;6217176;23;20325;-84
2023/07/04 10:06:52;;;;;;;5.85;1.48;;;;;;;;;;6213473;23;20636;-94
2023/07/04 10:09:20;;;;;;;5.18;1.05;;;;;;;;;;6215443;23;20012;-90
2023/07/04 10:11:48;;;;;;;8.48;1.80;;;;;;;;;;6213327;23;20009;-87
2023/07/04 10:14:14;;;;;;;3.20;1.27;;;;;;;;;;6211435;23;20415;-92
2023/07/04 10:16:46;;;;;;;7.35;2.22;;;;;;;;;;6190376;23;20334;-94
2023/07/04 10:19:13;;;;;;;4.70;1.65;;;;;;;;;;6191291;23;20013;-90
2023/07/04 10:21:40;;;;;;;7.30;1.80;;;;;;;;;;6206888;23;20558;-94
2023/07/04 10:24:07;;;;;;;7.13;1.50;;;;;;;;;;6207503;23;20095;-88
2023/07/04 10:26:34;;;;;;;3.90;1.50;;;;;;;;;;6207976;23;20013;-86
2023/07/04 10:29:01;;;;;;;5.07;1.20;;;;;;;;;;6206810;23;20013;-89
2023/07/04 10:31:27;;;;;;;3.80;1.40;;;;;;;;;;6207698;23;20481;-90
2023/07/04 10:33:57;;;;;;;5.28;1.52;;;;;;;;;;6209251;23;20012;-91
2023/07/04 10:36:27;;;;;;;3.92;1.42;;;;;;;;;;6207889;23;20342;-85
2023/07/04 10:38:54;;;;;;;3.88;1.50;;;;;;;;;;6206944;23;20023;-90
2023/07/04 10:41:26;;;;;;;5.32;1.40;;;;;;;;;;6206974;23;20092;-87
2023/07/04 10:43:55;;;;;;;3.10;1.05;;;;;;;;;;6206420;23;20438;-89
2023/07/04 10:46:23;;;;;;;4.55;1.60;;;;;;;;;;6207642;23;20044;-88
2023/07/04 10:48:53;;;;;;;4.78;1.60;;;;;;;;;;6205967;23;20354;-90
2023/07/04 10:51:23;;;;;;;5.45;2.13;;;;;;;;;;6205712;23;20045;-88
2023/07/04 10:53:49;;;;;;;5.95;2.85;;;;;;;;;;6201941;23;20128;-87
2023/07/04 10:56:21;;;;;;;4.95;1.95;;;;;;;;;;6208996;23;20067;-91
2023/07/04 10:58:51;;;;;;;2.70;1.58;;;;;;;;;;6208170;23;20019;-82
2023/07/04 11:01:23;;;;;;;4.90;1.40;;;;;;;;;;6206107;23;19997;-87
2023/07/04 11:03:49;;;;;;;4.05;1.40;;;;;;;;;;6213535;23;20027;-88
2023/07/04 11:06:19;;;;;;;6.63;1.70;;;;;;;;;;6211582;23;20319;-90
2023/07/04 11:08:45;;;;;;;3.28;1.17;;;;;;;;;;6183906;23;20058;-85
2023/07/04 11:11:15;;;;;;;6.10;1.23;;;;;;;;;;6209091;23;20402;-88
2023/07/04 11:13:52;;;;;;;5.43;1.30;;;;;;;;;;6206622;23;20051;-85
2023/07/04 11:16:18;;;;;;;4.95;1.67;;;;;;;;;;6204836;23;20059;-85
2023/07/04 11:18:45;;;;;;;5.30;1.20;;;;;;;;;;6206801;23;20552;-86
2023/07/04 11:21:13;;;;;;;2.60;0.73;;;;;;;;;;6205385;23;20028;-83
2023/07/04 11:23:48;;;;;;;3.08;1.00;;;;;;;;;;6202733;23;20021;-87
2023/07/04 11:26:14;;;;;;;5.72;1.30;;;;;;;;;;6207246;23;20426;-85
2023/07/04 11:28:43;;;;;;;2.78;1.00;;;;;;;;;;6206007;23;20013;-85
2023/07/04 11:31:09;;;;;;;4.93;1.40;;;;;;;;;;6207185;23;20095;-87
2023/07/04 11:33:41;;;;;;;4.32;1.27;;;;;;;;;;6206684;23;20028;-87
2023/07/04 11:36:17;;;;;;;3.00;1.33;;;;;;;;;;6207273;23;20074;-91
2023/07/04 11:38:44;;;;;;;3.35;1.35;;;;;;;;;;6184199;23;20092;-90
2023/07/04 11:41:10;;;;;;;3.45;1.25;;;;;;;;;;6207766;23;20050;-84
2023/07/04 11:43:42;;;;;;;2.67;1.30;;;;;;;;;;6207788;23;20449;-90
2023/07/04 11:46:20;;;;;;;4.07;0.93;;;;;;;;;;6210059;23;20078;-89
2023/07/04 11:48:48;;;;;;;3.40;0.88;;;;;;;;;;6209165;23;20016;-86
2023/07/04 11:51:15;;;;;;;3.58;1.10;;;;;;;;;;6207004;23;20461;-87
2023/07/04 11:53:47;;;;;;;2.35;0.85;;;;;;;;;;6207974;23;20027;-86
2023/07/04 11:56:18;;;;;;;2.35;0.90;;;;;;;;;;6206891;23;20066;-87
2023/07/04 11:58:45;;;;;;;4.75;1.25;;;;;;;;;;6205329;23;20431;-87
2023/07/04 12:01:12;;;;;;;2.63;1.13;;;;;;;;;;6208058;23;20111;-89
2023/07/04 12:03:42;;;;;;;3.80;1.30;;;;;;;;;;6208218;23;20017;-85
2023/07/04 12:06:08;;;;;;;4.40;1.30;;;;;;;;;;6206007;23;20009;-86
2023/07/04 12:08:34;;;;;;;4.75;1.75;;;;;;;;;;6207376;23;20307;-91
2023/07/04 12:11:02;;;;;;;3.92;1.40;;;;;;;;;;6181543;23;20192;-85
2023/07/04 12:13:29;;;;;;;3.63;1.20;;;;;;;;;;6206020;23;20024;-87
2023/07/04 12:15:56;;;;;;;5.50;1.88;;;;;;;;;;6205064;23;20040;-85
2023/07/04 12:18:33;;;;;;;5.65;1.52;;;;;;;;;;6207900;23;20067;-85
2023/07/04 12:20:59;;;;;;;5.93;2.08;;;;;;;;;;6204993;23;20075;-88
2023/07/04 12:23:25;;;;;;;5.85;1.60;;;;;;;;;;6205902;23;20346;-85
2023/07/04 12:25:52;;;;;;;6.20;2.00;;;;;;;;;;6204554;23;20019;-84
2023/07/04 12:28:22;;;;;;;5.50;1.80;;;;;;;;;;6204237;23;20009;-85
2023/07/04 12:30:50;;;;;;;2.63;1.33;;;;;;;;;;6204172;23;20017;-84
2023/07/04 12:33:23;;;;;;;4.85;1.35;;;;;;;;;;6206613;23;20016;-84
2023/07/04 12:35:59;;;;;;;5.07;1.13;;;;;;;;;;6205680;23;20020;-84
2023/07/04 12:38:26;;;;;;;3.53;1.38;;;;;;;;;;6207179;23;20008;-85
2023/07/04 12:40:52;;;;;;;3.05;1.30;;;;;;;;;;6205590;23;20022;-82
2023/07/04 12:43:18;;;;;;;3.15;1.23;;;;;;;;;;6206584;23;20017;-89
2023/07/04 12:45:44;;;;;;;2.67;0.90;;;;;;;;;;6206498;23;20020;-85
2023/07/04 12:48:12;;;;;;;2.75;1.02;;;;;;;;;;6207832;23;20015;-85
2023/07/04 12:50:52;;;;;;;2.38;1.10;;;;;;;;;;6205973;23;20020;-82
2023/07/04 12:53:18;;;;;;;3.63;1.88;;;;;;;;;;6203626;23;20021;-83
2023/07/04 12:55:45;;;;;;;3.42;1.00;;;;;;;;;;6205708;23;20438;-85
2023/07/04 12:58:12;;;;;;;4.22;1.73;;;;;;;;;;6205276;23;20016;-84
2023/07/04 13:00:38;;;;;;;2.72;1.20;;;;;;;;;;6181407;23;20027;-83
2023/07/04 13:03:10;;;;;;;1.80;1.27;;;;;;;;;;6206761;23;20020;-87
2023/07/04 13:05:39;;;;;;;4.68;1.60;;;;;;;;;;6206633;23;20450;-84
2023/07/04 13:08:09;;;;;;;4.57;1.10;;;;;;;;;;6207377;23;20008;-84
2023/07/04 13:10:36;;;;;;;4.60;1.75;;;;;;;;;;6208065;23;20095;-86
2023/07/04 13:13:02;;;;;;;2.80;1.35;;;;;;;;;;6205957;23;20043;-86
2023/07/04 13:15:32;;;;;;;8.80;1.88;;;;;;;;;;6205476;23;20435;-83
2023/07/04 13:18:03;;;;;;;5.70;1.70;;;;;;;;;;6205495;23;20437;-84
2023/07/04 13:20:29;;;;;;;;;;;;;;;;;;6207441;23;20027;-84
2023/07/04 13:22:55;;;;;;;3.75;1.15;;;;;;;;;;6204608;23;19915;-87
2023/07/04 13:25:26;;;;;;;3.72;1.38;;;;;;;;;;6206101;23;20012;-87
2023/07/04 13:27:54;;;;;;;2.70;1.17;;;;;;;;;;6206640;23;20017;-88
2023/07/04 13:30:28;;;;;;;5.75;1.25;;;;;;;;;;6207678;23;20084;-85
2023/07/04 13:32:54;;;;;;;5.03;1.75;;;;;;;;;;6206870;23;20020;-87
2023/07/04 13:35:21;;;;;;;3.45;1.25;;;;;;;;;;6205832;23;20052;-84
2023/07/04 13:37:47;;;;;;;4.80;1.20;;;;;;;;;;6206775;23;20091;-86
2023/07/04 13:40:14;;;;;;;4.32;1.23;;;;;;;;;;6205134;23;20415;-86
2023/07/04 13:42:40;;;;;;;3.70;1.00;;;;;;;;;;6205551;23;20020;-86
2023/07/04 13:45:08;;;;;;;3.30;0.90;;;;;;;;;;6207218;23;20025;-86
2023/07/04 13:47:34;;;;;;;4.85;0.98;;;;;;;;;;6206852;23;20020;-84
2023/07/04 13:50:02;;;;;;;6.53;1.25;;;;;;;;;;6206966;23;20008;-82
2023/07/04 13:52:28;;;;;;;1.90;0.85;;;;;;;;;;6207741;23;20017;-83
2023/07/04 13:54:54;;;;;;;4.53;1.17;;;;;;;;;;6206131;23;20023;-88
2023/07/04 13:57:20;;;;;;;2.80;1.40;;;;;;;;;;6207428;23;20489;-87
2023/07/04 13:59:48;;;;;;;4.88;1.10;;;;;;;;;;6206531;23;20019;-91
2023/07/04 14:02:15;;;;;;;2.65;0.95;;;;;;;;;;6205825;23;20187;-89
2023/07/04 14:04:41;;;;;;;2.45;1.13;;;;;;;;;;6206478;23;20043;-85
2023/07/04 14:07:07;;;;;;;4.28;1.27;;;;;;;;;;6205312;23;20427;-85
2023/07/04 14:09:35;;;;;;;5.78;1.10;;;;;;;;;;6205940;23;20315;-86
2023/07/04 14:12:01;;;;;;;4.05;1.35;;;;;;;;;;6207725;23;20019;-85
2023/07/04 14:14:27;;;;;;;1.77;1.20;;;;;;;;;;6205866;23;20450;-87
2023/07/04 14:16:53;;;;;;;3.38;1.30;;;;;;;;;;6207416;23;20365;-87
2023/07/04 14:19:19;;;;;;;5.00;1.25;;;;;;;;;;6206014;23;20027;-92
2023/07/04 14:21:46;;;;;;;2.22;0.88;;;;;;;;;;6207380;23;20092;-89
2023/07/04 14:24:12;;;;;;;4.55;1.20;;;;;;;;;;6205844;23;20402;-86
2023/07/04 14:26:38;;;;;;;4.22;1.25;;;;;;;;;;6205328;23;20020;-85
2023/07/04 14:29:04;;;;;;;3.53;1.13;;;;;;;;;;6204456;23;20013;-86
2023/07/04 14:31:31;;;;;;;3.08;1.15;;;;;;;;;;6206593;23;20019;-84
2023/07/04 14:33:57;;;;;;;3.05;1.27;;;;;;;;;;6204841;23;20338;-85
2023/07/04 14:36:24;;;;;;;3.35;1.40;;;;;;;;;;6205532;23;20017;-83
2023/07/04 14:38:50;;;;;;;2.97;1.30;;;;;;;;;;6208139;23;20075;-84
2023/07/04 14:41:16;;;;;;;4.40;1.13;;;;;;;;;;6207809;23;20051;-85
2023/07/04 14:43:43;;;;;;;3.28;1.10;;;;;;;;;;6207346;23;20024;-86
2023/07/04 14:46:09;;;;;;;6.18;1.40;;;;;;;;;;6209211;23;20013;-84